LESA/SLM METAR and TAF weather

Enter ICAO airport designator
Station Type Date Time Source
LESA METAR 2018/12/13 22:30 UTC NOAA

LESA 132230Z AUTO 28006KT 8000 NCD 01/M00 Q1019


Station Type Date Time Source
LESA Decoded METAR 2018/12/13 22:30 UTC NOAA

Salamanca / Matacan, Spain (LESA) 40-57N 005-30W 795M
Dec 13, 2018 - 05:30 PM EST / 2018.12.13 2230 UTC
Wind: from the W (280 degrees) at 7 MPH (6 KT):0
Visibility: 4 mile(s):0
Temperature: 33 F (1 C)
Windchill: 26 F (-3 C):1
Dew Point: 32 F (0 C)
Relative Humidity: 93%
Pressure (altimeter): 30.09 in. Hg (1019 hPa)
ob: LESA 132230Z AUTO 28006KT 8000 NCD 01/M00 Q1019
cycle: 22

Station Type Date Time Source
LESA TAF 2018/12/13 18:27 UTC NOAA

TAF LESA 131700Z 1318/1418 30009KT 9999 BKN020 TX08/1414Z TN03/1407Z PROB40
TEMPO 1403/1409 3000 BR BKN006 PROB30
TEMPO 1404/1409 0500 FG BKN003


Example: see airport list